createdAt,value
2019-01-29T00:02:11.599Z,21.30
2019-01-29T00:05:03.693Z,21.30
2019-01-29T00:07:55.979Z,21.30
2019-01-29T00:10:48.093Z,21.30
2019-01-29T00:13:40.615Z,21.30
2019-01-29T00:16:33.368Z,21.30
2019-01-29T00:19:25.701Z,21.30
2019-01-29T00:22:18.116Z,21.30
2019-01-29T00:25:09.960Z,21.30
2019-01-29T00:28:02.882Z,21.30
2019-01-29T00:30:55.270Z,21.30
2019-01-29T00:33:47.456Z,21.30
2019-01-29T00:36:39.491Z,21.30
2019-01-29T00:39:31.615Z,21.30
2019-01-29T00:42:23.976Z,21.30
2019-01-29T00:45:16.370Z,21.20
2019-01-29T00:48:08.585Z,21.30
2019-01-29T00:51:00.720Z,21.20
2019-01-29T00:53:52.854Z,21.20
2019-01-29T00:56:45.662Z,21.20
2019-01-29T00:59:37.550Z,21.20
2019-01-29T01:02:29.876Z,21.20
2019-01-29T01:05:22.102Z,21.20
2019-01-29T01:08:14.194Z,21.20
2019-01-29T01:11:06.313Z,21.20
2019-01-29T01:13:58.137Z,21.20
2019-01-29T01:16:50.141Z,21.20
2019-01-29T01:19:42.504Z,21.20
2019-01-29T01:22:34.634Z,21.20
2019-01-29T01:25:26.688Z,21.20
2019-01-29T01:28:19.031Z,21.20
2019-01-29T01:31:10.890Z,21.20
2019-01-29T01:34:03.310Z,21.20
2019-01-29T01:36:55.158Z,21.20
2019-01-29T01:39:46.906Z,21.20
2019-01-29T01:42:39.174Z,21.20
2019-01-29T01:45:31.230Z,21.10
2019-01-29T01:48:23.244Z,21.10
2019-01-29T01:51:15.321Z,21.10
2019-01-29T01:54:07.543Z,21.10
2019-01-29T01:57:00.036Z,21.10
2019-01-29T01:59:53.640Z,21.10
2019-01-29T02:02:46.390Z,21.10
2019-01-29T02:05:38.505Z,21.10
2019-01-29T02:08:30.800Z,21.10
2019-01-29T02:11:23.020Z,21.10
2019-01-29T02:14:14.985Z,21.10
2019-01-29T02:17:07.071Z,21.10
2019-01-29T02:19:59.068Z,21.10
2019-01-29T02:22:51.090Z,20.90
2019-01-29T02:25:43.475Z,20.70
2019-01-29T02:28:36.570Z,20.60
2019-01-29T02:31:28.552Z,20.60
2019-01-29T02:34:21.280Z,20.50
2019-01-29T02:37:13.413Z,20.40
2019-01-29T02:40:05.272Z,20.30
2019-01-29T02:42:57.171Z,20.20
2019-01-29T02:45:48.878Z,20.30
2019-01-29T02:48:40.206Z,20.30
2019-01-29T02:51:32.006Z,20.40
2019-01-29T02:54:24.070Z,20.50
2019-01-29T02:57:16.454Z,20.60
2019-01-29T03:00:09.530Z,20.60
2019-01-29T03:03:01.601Z,20.70
2019-01-29T03:05:53.765Z,20.70
2019-01-29T03:08:46.214Z,20.80
2019-01-29T03:11:38.565Z,20.70
2019-01-29T03:14:31.015Z,20.70
2019-01-29T03:17:22.978Z,20.70
2019-01-29T03:20:15.096Z,20.80
2019-01-29T03:23:07.222Z,20.80
2019-01-29T03:25:59.218Z,20.80
2019-01-29T03:28:52.040Z,20.90
2019-01-29T03:31:43.791Z,20.90
2019-01-29T03:34:35.946Z,20.90
2019-01-29T03:37:28.020Z,21.00
2019-01-29T03:40:22.243Z,21.00
2019-01-29T03:43:15.831Z,21.00
2019-01-29T03:46:09.360Z,21.00
2019-01-29T03:49:08.439Z,21.00
2019-01-29T03:52:00.333Z,21.00
2019-01-29T03:54:53.045Z,21.00
2019-01-29T03:57:45.284Z,21.10
2019-01-29T04:00:37.634Z,21.10
2019-01-29T04:03:30.033Z,21.10
2019-01-29T04:06:22.150Z,21.10
2019-01-29T04:09:15.603Z,21.20
2019-01-29T04:12:07.761Z,21.20
2019-01-29T04:17:48.240Z,21.30
2019-01-29T04:20:42.112Z,21.30
2019-01-29T04:23:34.469Z,21.30
2019-01-29T04:29:16.515Z,21.30
2019-01-29T04:32:08.779Z,21.30
2019-01-29T04:35:01.635Z,21.30
2019-01-29T04:37:54.309Z,21.20
2019-01-29T04:43:34.431Z,21.20
2019-01-29T04:49:19.327Z,21.10
2019-01-29T04:52:13.242Z,21.00
2019-01-29T04:55:05.115Z,21.00
2019-01-29T04:57:57.323Z,21.00
2019-01-29T05:00:50.011Z,21.10
2019-01-29T05:03:42.422Z,21.10
2019-01-29T05:06:33.388Z,21.20
2019-01-29T05:09:25.506Z,21.20
2019-01-29T05:12:22.262Z,21.30
2019-01-29T05:15:21.807Z,21.30
2019-01-29T05:18:14.672Z,21.30
2019-01-29T05:21:07.372Z,21.30
2019-01-29T05:24:06.883Z,21.30
2019-01-29T05:27:00.899Z,21.40
2019-01-29T05:29:50.790Z,21.30
2019-01-29T05:32:43.795Z,21.30
2019-01-29T05:35:36.773Z,21.20
2019-01-29T05:38:38.890Z,21.20
2019-01-29T05:41:32.958Z,21.20
2019-01-29T05:44:36.733Z,21.20
2019-01-29T05:47:29.955Z,21.20
2019-01-29T05:50:25.203Z,21.30
2019-01-29T05:53:18.136Z,21.30
2019-01-29T05:56:13.069Z,21.30
2019-01-29T05:59:07.839Z,21.20
2019-01-29T06:02:01.824Z,21.30
2019-01-29T06:05:34.237Z,21.30
2019-01-29T06:08:34.026Z,21.30
2019-01-29T06:11:29.378Z,21.30
2019-01-29T06:14:28.611Z,21.30
2019-01-29T06:17:48.501Z,21.40
2019-01-29T06:21:03.538Z,21.40
2019-01-29T06:23:59.105Z,21.50
2019-01-29T06:26:55.106Z,21.50
2019-01-29T06:29:47.729Z,21.50
2019-01-29T06:32:42.431Z,21.50
2019-01-29T06:35:35.035Z,21.50
2019-01-29T06:38:28.671Z,21.50
2019-01-29T06:41:21.598Z,21.50
2019-01-29T06:44:17.087Z,21.60
2019-01-29T06:47:09.817Z,21.60
2019-01-29T06:50:06.283Z,21.60
2019-01-29T06:53:07.625Z,21.60
2019-01-29T06:56:07.977Z,21.60
2019-01-29T06:59:01.986Z,21.60
2019-01-29T07:01:55.152Z,21.70
2019-01-29T07:04:48.659Z,21.70
2019-01-29T07:07:48.906Z,21.70
2019-01-29T07:10:44.139Z,21.70
2019-01-29T07:13:37.016Z,21.70
2019-01-29T07:16:47.404Z,21.80
2019-01-29T07:19:46.713Z,21.80
2019-01-29T07:22:42.497Z,21.80
2019-01-29T07:25:33.697Z,21.80
2019-01-29T07:31:16.862Z,21.70
2019-01-29T07:34:15.038Z,21.70
2019-01-29T07:37:07.861Z,21.70
2019-01-29T07:40:01.258Z,21.70
2019-01-29T07:42:56.316Z,21.70
2019-01-29T07:45:48.966Z,21.70
2019-01-29T07:48:43.350Z,21.80
2019-01-29T07:51:36.746Z,21.80
2019-01-29T07:54:33.462Z,21.80
2019-01-29T07:57:24.102Z,21.80
2019-01-29T08:00:16.944Z,21.80
2019-01-29T08:03:10.625Z,21.80
2019-01-29T08:06:05.555Z,21.90
2019-01-29T08:08:58.587Z,21.90
2019-01-29T08:11:57.482Z,21.90
2019-01-29T08:14:47.896Z,21.90
2019-01-29T08:17:41.020Z,21.90
2019-01-29T08:20:33.172Z,21.90
2019-01-29T08:23:28.467Z,21.90
2019-01-29T08:26:23.109Z,21.90
2019-01-29T08:29:15.234Z,21.90
2019-01-29T08:32:07.514Z,21.90
2019-01-29T08:35:05.233Z,21.90
2019-01-29T08:38:16.169Z,21.90
2019-01-29T08:41:19.815Z,21.90
2019-01-29T08:44:13.882Z,21.90
2019-01-29T08:47:06.132Z,21.90
2019-01-29T08:50:01.176Z,21.90
2019-01-29T08:52:53.521Z,21.90
2019-01-29T08:55:51.862Z,21.90
2019-01-29T08:58:46.540Z,21.90
2019-01-29T09:02:14.776Z,21.90
2019-01-29T09:05:15.015Z,21.90
2019-01-29T09:08:04.383Z,22.00
2019-01-29T09:10:56.408Z,22.00
2019-01-29T09:13:48.784Z,22.00
2019-01-29T09:16:41.426Z,22.00
2019-01-29T09:19:34.870Z,22.00
2019-01-29T09:22:28.252Z,22.00
2019-01-29T09:25:28.369Z,21.90
2019-01-29T09:28:29.332Z,21.90
2019-01-29T09:31:26.858Z,22.00
2019-01-29T09:34:21.045Z,22.00
2019-01-29T09:37:14.581Z,22.00
2019-01-29T09:40:07.096Z,21.90
2019-01-29T09:43:00.861Z,21.90
2019-01-29T09:45:55.117Z,22.00
2019-01-29T09:48:50.529Z,22.00
2019-01-29T09:51:43.744Z,22.00
2019-01-29T09:54:36.330Z,22.00
2019-01-29T09:57:29.824Z,22.00
2019-01-29T10:00:39.259Z,22.00
2019-01-29T10:03:35.719Z,22.00
2019-01-29T10:06:29.436Z,22.00
2019-01-29T10:09:21.825Z,21.90
2019-01-29T10:12:14.253Z,21.90
2019-01-29T10:15:10.631Z,21.90
2019-01-29T10:18:08.560Z,21.90
2019-01-29T10:21:03.792Z,22.00
2019-01-29T10:23:56.834Z,22.00
2019-01-29T10:26:50.642Z,22.00
2019-01-29T10:29:47.391Z,22.00
2019-01-29T10:32:42.605Z,21.90
2019-01-29T10:35:36.766Z,22.00
2019-01-29T10:38:34.578Z,22.00
2019-01-29T10:41:29.093Z,22.00
2019-01-29T10:44:25.330Z,22.00
2019-01-29T10:57:55.719Z,21.90
2019-01-29T11:00:55.742Z,22.00
2019-01-29T11:03:51.780Z,22.00
2019-01-29T11:06:51.372Z,22.00
2019-01-29T11:12:58.755Z,22.00
2019-01-29T11:16:47.554Z,22.00
2019-01-29T11:23:42.791Z,22.00
2019-01-29T11:26:34.999Z,22.10
2019-01-29T11:29:40.688Z,22.10
2019-01-29T11:32:45.174Z,22.00
2019-01-29T11:35:44.692Z,22.00
2019-01-29T11:38:41.497Z,22.00
2019-01-29T11:44:56.628Z,22.00
2019-01-29T11:47:45.425Z,22.00
2019-01-29T11:51:16.144Z,22.00
2019-01-29T11:57:58.930Z,22.00
2019-01-29T12:01:04.363Z,22.00
2019-01-29T12:08:02.759Z,22.00
2019-01-29T12:22:10.306Z,22.00
2019-01-29T12:28:13.393Z,22.10
2019-01-29T12:31:10.643Z,22.00
2019-01-29T12:34:04.718Z,22.10
2019-01-29T12:37:29.406Z,22.10
2019-01-29T12:40:24.424Z,22.10
2019-01-29T12:43:22.707Z,22.10
2019-01-29T12:46:18.135Z,22.00
2019-01-29T12:57:02.698Z,22.10
2019-01-29T12:59:54.903Z,22.10
2019-01-29T13:02:47.035Z,22.10
2019-01-29T13:05:39.318Z,22.10
2019-01-29T13:08:31.104Z,22.10
2019-01-29T13:11:24.505Z,22.00
2019-01-29T13:14:16.388Z,22.00
2019-01-29T13:17:08.700Z,22.00
2019-01-29T13:20:03.374Z,22.00
2019-01-29T13:22:58.905Z,22.00
2019-01-29T13:25:50.912Z,22.00
2019-01-29T13:28:43.211Z,21.90
2019-01-29T13:31:35.560Z,21.90
2019-01-29T13:34:30.562Z,21.90
2019-01-29T13:37:27.820Z,21.90
2019-01-29T13:40:21.078Z,22.00
2019-01-29T13:43:13.660Z,22.00
2019-01-29T13:46:11.598Z,21.90
2019-01-29T13:49:08.577Z,21.90
2019-01-29T13:52:06.716Z,21.80
2019-01-29T13:55:08.075Z,21.80
2019-01-29T13:58:01.076Z,21.90
2019-01-29T14:01:26.293Z,21.80
2019-01-29T14:04:34.238Z,21.80
2019-01-29T14:07:29.544Z,21.80
2019-01-29T14:10:22.464Z,21.80
2019-01-29T14:13:14.912Z,21.80
2019-01-29T14:16:10.988Z,21.80
2019-01-29T14:19:03.210Z,21.80
2019-01-29T14:21:55.242Z,21.80
2019-01-29T14:24:47.481Z,21.80
2019-01-29T14:27:39.490Z,21.80
2019-01-29T14:30:40.268Z,21.80
2019-01-29T14:33:31.704Z,21.80
2019-01-29T14:36:25.444Z,21.80
2019-01-29T14:39:26.155Z,21.80
2019-01-29T14:42:18.470Z,21.80
2019-01-29T14:45:13.852Z,21.80
2019-01-29T14:48:06.805Z,21.80
2019-01-29T14:50:59.227Z,21.70
2019-01-29T14:53:51.904Z,21.70
2019-01-29T14:56:45.389Z,21.70
2019-01-29T14:59:39.108Z,21.70
2019-01-29T15:02:31.755Z,21.70
2019-01-29T15:05:25.466Z,21.70
2019-01-29T15:08:17.392Z,21.70
2019-01-29T15:11:10.678Z,21.70
2019-01-29T15:14:03.690Z,21.70
2019-01-29T15:17:26.279Z,21.70
2019-01-29T15:20:14.897Z,21.70
2019-01-29T15:23:08.368Z,21.70
2019-01-29T15:26:03.428Z,21.70
2019-01-29T15:31:43.453Z,21.70
2019-01-29T15:34:36.757Z,21.70
2019-01-29T15:37:29.655Z,21.70
2019-01-29T15:40:22.072Z,21.70
2019-01-29T15:43:14.317Z,21.60
2019-01-29T15:46:06.823Z,21.70
2019-01-29T15:51:48.539Z,21.70
2019-01-29T15:54:40.984Z,21.70
2019-01-29T15:57:34.135Z,21.70
2019-01-29T16:00:27.787Z,21.60
2019-01-29T16:03:20.606Z,21.70
2019-01-29T16:06:13.294Z,21.70
2019-01-29T16:09:07.948Z,21.70
2019-01-29T16:12:00.628Z,21.70
2019-01-29T16:14:52.747Z,21.70
2019-01-29T16:17:45.575Z,21.70
2019-01-29T16:20:38.183Z,21.60
2019-01-29T16:23:36.783Z,21.70
2019-01-29T16:26:27.011Z,21.70
2019-01-29T16:29:19.333Z,21.70
2019-01-29T16:32:11.521Z,21.70
2019-01-29T16:35:03.501Z,21.70
2019-01-29T16:37:55.936Z,21.60
2019-01-29T16:40:48.284Z,21.60
2019-01-29T16:43:41.144Z,21.60
2019-01-29T16:46:33.294Z,21.70
2019-01-29T16:49:25.940Z,21.60
2019-01-29T16:52:18.677Z,21.70
2019-01-29T16:55:11.472Z,21.70
2019-01-29T16:58:05.327Z,21.70
2019-01-29T17:00:57.965Z,21.70
2019-01-29T17:03:50.626Z,21.70
2019-01-29T17:06:42.298Z,21.70
2019-01-29T17:09:34.467Z,21.60
2019-01-29T17:12:26.443Z,21.60
2019-01-29T17:15:20.321Z,21.60
2019-01-29T17:18:12.277Z,21.60
2019-01-29T17:21:04.227Z,21.60
2019-01-29T17:23:56.243Z,21.60
2019-01-29T17:26:48.371Z,21.60
2019-01-29T17:29:43.101Z,21.60
2019-01-29T17:32:35.056Z,21.60
2019-01-29T17:35:53.047Z,21.50
2019-01-29T17:38:44.802Z,21.60
2019-01-29T17:41:35.955Z,21.60
2019-01-29T17:44:29.537Z,21.60
2019-01-29T17:47:21.570Z,21.60
2019-01-29T17:50:16.056Z,21.60
2019-01-29T17:53:10.494Z,21.60
2019-01-29T17:56:02.829Z,21.60
2019-01-29T17:58:55.012Z,21.60
2019-01-29T18:01:47.090Z,21.60
2019-01-29T18:04:39.116Z,21.60
2019-01-29T18:07:31.319Z,21.60
2019-01-29T18:10:23.275Z,21.50
2019-01-29T18:13:15.258Z,21.50
2019-01-29T18:16:06.351Z,21.60
2019-01-29T18:18:57.124Z,21.50
2019-01-29T18:21:56.705Z,21.50
2019-01-29T18:24:43.597Z,21.50
2019-01-29T18:27:35.938Z,21.50
2019-01-29T18:30:30.526Z,21.50
2019-01-29T18:33:22.533Z,21.50
2019-01-29T18:36:14.284Z,21.50
2019-01-29T18:39:08.045Z,21.50
2019-01-29T18:42:00.047Z,21.50
2019-01-29T18:44:51.853Z,21.50
2019-01-29T18:47:45.162Z,21.40
2019-01-29T18:50:36.940Z,21.50
2019-01-29T18:53:30.201Z,21.50
2019-01-29T18:56:22.435Z,21.40
2019-01-29T18:59:14.468Z,21.50
2019-01-29T19:02:09.103Z,21.50
2019-01-29T19:05:00.957Z,21.50
2019-01-29T19:07:53.004Z,21.50
2019-01-29T19:10:45.193Z,21.60
2019-01-29T19:13:37.458Z,21.50
2019-01-29T19:19:18.444Z,21.50
2019-01-29T19:22:10.551Z,21.50
2019-01-29T19:25:02.611Z,21.60
2019-01-29T19:27:54.444Z,21.50
2019-01-29T19:30:46.319Z,21.50
2019-01-29T19:36:27.603Z,21.50
2019-01-29T19:39:22.206Z,21.50
2019-01-29T19:42:14.083Z,21.50
2019-01-29T19:45:08.475Z,21.50
2019-01-29T19:48:01.616Z,21.50
2019-01-29T19:50:53.706Z,21.50
2019-01-29T19:53:45.756Z,21.50
2019-01-29T19:56:38.820Z,21.50
2019-01-29T19:59:30.882Z,21.50
2019-01-29T20:02:22.872Z,21.50
2019-01-29T20:05:14.833Z,21.50
2019-01-29T20:08:07.152Z,21.50
2019-01-29T20:10:59.551Z,21.40
2019-01-29T20:13:52.060Z,21.40
2019-01-29T20:16:44.299Z,21.40
2019-01-29T20:19:36.148Z,21.40
2019-01-29T20:22:27.960Z,21.40
2019-01-29T20:25:20.197Z,21.40
2019-01-29T20:28:12.242Z,21.40
2019-01-29T20:31:02.395Z,21.40
2019-01-29T20:33:54.352Z,21.40
2019-01-29T20:36:46.422Z,21.40
2019-01-29T20:39:38.528Z,21.40
2019-01-29T20:42:30.415Z,21.30
2019-01-29T20:45:22.203Z,21.30
2019-01-29T20:48:14.362Z,21.30
2019-01-29T20:51:07.560Z,21.40
2019-01-29T20:53:59.673Z,21.30
2019-01-29T20:56:51.763Z,21.30
2019-01-29T20:59:43.638Z,21.30
2019-01-29T21:02:35.743Z,21.30
2019-01-29T21:05:27.742Z,21.30
2019-01-29T21:08:19.913Z,21.30
2019-01-29T21:11:13.479Z,21.30
2019-01-29T21:14:05.554Z,21.30
2019-01-29T21:16:58.721Z,21.30
2019-01-29T21:19:51.916Z,21.30
2019-01-29T21:22:44.001Z,21.30
2019-01-29T21:25:34.826Z,21.30
2019-01-29T21:28:25.946Z,21.30
2019-01-29T21:31:17.721Z,21.30
2019-01-29T21:34:09.413Z,21.30
2019-01-29T21:36:59.551Z,21.30
2019-01-29T21:39:51.706Z,21.30
2019-01-29T21:42:43.785Z,21.30
2019-01-29T21:45:35.587Z,21.30
2019-01-29T21:48:27.274Z,21.30
2019-01-29T21:51:19.338Z,21.20
2019-01-29T21:54:10.975Z,21.30
2019-01-29T21:57:04.610Z,21.20
2019-01-29T21:59:56.537Z,21.20
2019-01-29T22:02:51.780Z,21.20
2019-01-29T22:05:43.550Z,21.20
2019-01-29T22:08:35.466Z,21.20
2019-01-29T22:11:27.501Z,21.20
2019-01-29T22:14:19.637Z,21.20
2019-01-29T22:17:11.758Z,21.20
2019-01-29T22:20:03.827Z,21.20
2019-01-29T22:22:55.622Z,21.20
2019-01-29T22:25:47.401Z,21.20
2019-01-29T22:28:39.501Z,21.20
2019-01-29T22:31:31.507Z,21.20
2019-01-29T22:34:23.422Z,21.20
2019-01-29T22:37:15.636Z,21.20
2019-01-29T22:40:10.909Z,21.20
2019-01-29T22:43:03.025Z,21.20
2019-01-29T22:45:55.278Z,21.20
2019-01-29T22:48:48.481Z,21.20
2019-01-29T22:51:40.324Z,21.10
2019-01-29T22:54:32.447Z,21.20
2019-01-29T22:57:24.606Z,21.10
2019-01-29T23:00:54.656Z,21.20
2019-01-29T23:03:50.830Z,21.10
2019-01-29T23:07:00.791Z,21.10
2019-01-29T23:09:53.458Z,21.10
2019-01-29T23:12:45.651Z,21.10
2019-01-29T23:15:37.848Z,21.10
2019-01-29T23:18:30.000Z,21.10
2019-01-29T23:21:22.124Z,21.10
2019-01-29T23:24:14.045Z,21.10
2019-01-29T23:27:06.037Z,21.10
2019-01-29T23:29:58.073Z,21.10
2019-01-29T23:32:49.939Z,21.10
2019-01-29T23:35:42.656Z,21.10
2019-01-29T23:38:34.522Z,21.00
2019-01-29T23:41:26.505Z,21.00
2019-01-29T23:44:18.132Z,21.10
2019-01-29T23:47:09.966Z,21.00
2019-01-29T23:50:02.007Z,21.00
2019-01-29T23:52:54.239Z,21.00
2019-01-29T23:55:46.088Z,21.00
2019-01-29T23:58:37.948Z,21.00
